Chenzhou, China
Current Conditions -  °F | °C
As of 2:00 PM on Saturday 29 Nov 2014 (Local Time) from ZGHA Reporting Station
Drizzle Drizzle  
Wind Chill: 54°   Ceiling: 600
Heat Index: 54°   Visibility: 0.87mi
Dew Point: 50°   Wind: 7mph
Humidity: 88%   Direction: 320°NW
Pressure: 29.91"   Gusts: NA
Location:  25.8°N, 113.03°E
Report Text: ZGHA 290600Z 32003MPS 1400 R36/1600N -DZ BR SCT003BKN006OVC050 12/10 Q1013 NOSIG
Loading
Personal Weather Stations






























Interactive Weather Map New forecast layout! Learn more

10-Day Weather Forecast

Advertisements
Track Severe Weather on mobile